sensor_id;sensor_type;location;lat;lon;timestamp;P1;durP1;ratioP1;P2;durP2;ratioP2
47329;SDS011;33060;50.178;7.570;2022-09-09T00:04:31;3.50;;;1.15;;
47329;SDS011;33060;50.178;7.570;2022-09-09T00:15:29;5.75;;;1.45;;
47329;SDS011;33060;50.178;7.570;2022-09-09T00:18:23;2.83;;;1.13;;
47329;SDS011;33060;50.178;7.570;2022-09-09T00:20:58;4.32;;;1.20;;
47329;SDS011;33060;50.178;7.570;2022-09-09T00:23:34;4.22;;;1.33;;
47329;SDS011;33060;50.178;7.570;2022-09-09T00:31:29;5.18;;;1.30;;
47329;SDS011;33060;50.178;7.570;2022-09-09T00:34:14;3.88;;;1.10;;
47329;SDS011;33060;50.178;7.570;2022-09-09T00:36:48;5.93;;;1.23;;
47329;SDS011;33060;50.178;7.570;2022-09-09T00:39:31;3.20;;;1.13;;
47329;SDS011;33060;50.178;7.570;2022-09-09T00:44:38;4.03;;;1.15;;
47329;SDS011;33060;50.178;7.570;2022-09-09T00:47:45;3.10;;;1.40;;
47329;SDS011;33060;50.178;7.570;2022-09-09T00:55:33;2.97;;;1.10;;
47329;SDS011;33060;50.178;7.570;2022-09-09T00:58:23;3.28;;;1.38;;
47329;SDS011;33060;50.178;7.570;2022-09-09T01:00:51;5.95;;;1.80;;
47329;SDS011;33060;50.178;7.570;2022-09-09T01:06:16;4.85;;;1.70;;
47329;SDS011;33060;50.178;7.570;2022-09-09T01:11:37;3.35;;;1.40;;
47329;SDS011;33060;50.178;7.570;2022-09-09T01:14:18;4.15;;;1.55;;
47329;SDS011;33060;50.178;7.570;2022-09-09T01:16:46;4.20;;;1.50;;
47329;SDS011;33060;50.178;7.570;2022-09-09T01:19:18;4.30;;;1.50;;
47329;SDS011;33060;50.178;7.570;2022-09-09T01:22:00;3.25;;;1.50;;
47329;SDS011;33060;50.178;7.570;2022-09-09T01:24:42;4.25;;;1.70;;
47329;SDS011;33060;50.178;7.570;2022-09-09T01:27:55;5.15;;;1.40;;
47329;SDS011;33060;50.178;7.570;2022-09-09T01:30:25;4.43;;;1.80;;
47329;SDS011;33060;50.178;7.570;2022-09-09T01:32:56;5.85;;;1.85;;
47329;SDS011;33060;50.178;7.570;2022-09-09T01:37:59;5.47;;;1.70;;
47329;SDS011;33060;50.178;7.570;2022-09-09T01:40:26;6.90;;;1.65;;
47329;SDS011;33060;50.178;7.570;2022-09-09T01:42:54;4.13;;;1.42;;
47329;SDS011;33060;50.178;7.570;2022-09-09T01:45:22;4.68;;;1.42;;
47329;SDS011;33060;50.178;7.570;2022-09-09T01:47:50;3.72;;;1.50;;
47329;SDS011;33060;50.178;7.570;2022-09-09T01:50:27;5.70;;;2.03;;
47329;SDS011;33060;50.178;7.570;2022-09-09T01:52:58;3.58;;;1.70;;
47329;SDS011;33060;50.178;7.570;2022-09-09T01:55:31;7.20;;;1.60;;
47329;SDS011;33060;50.178;7.570;2022-09-09T02:00:48;5.78;;;1.88;;
47329;SDS011;33060;50.178;7.570;2022-09-09T02:03:28;3.88;;;1.75;;
47329;SDS011;33060;50.178;7.570;2022-09-09T02:09:16;3.28;;;1.67;;
47329;SDS011;33060;50.178;7.570;2022-09-09T02:11:49;7.57;;;1.63;;
47329;SDS011;33060;50.178;7.570;2022-09-09T02:14:36;2.22;;;1.45;;
47329;SDS011;33060;50.178;7.570;2022-09-09T02:17:09;3.42;;;1.50;;
47329;SDS011;33060;50.178;7.570;2022-09-09T02:19:53;5.18;;;1.40;;
47329;SDS011;33060;50.178;7.570;2022-09-09T02:22:43;3.85;;;1.50;;
47329;SDS011;33060;50.178;7.570;2022-09-09T02:25:15;4.97;;;1.35;;
47329;SDS011;33060;50.178;7.570;2022-09-09T02:27:47;3.45;;;1.50;;
47329;SDS011;33060;50.178;7.570;2022-09-09T02:30:17;4.85;;;1.50;;
47329;SDS011;33060;50.178;7.570;2022-09-09T02:32:50;5.53;;;1.40;;
47329;SDS011;33060;50.178;7.570;2022-09-09T02:35:33;4.05;;;1.40;;
47329;SDS011;33060;50.178;7.570;2022-09-09T02:38:05;3.60;;;1.30;;
47329;SDS011;33060;50.178;7.570;2022-09-09T02:40:38;4.15;;;1.30;;
47329;SDS011;33060;50.178;7.570;2022-09-09T02:43:05;6.20;;;1.50;;
47329;SDS011;33060;50.178;7.570;2022-09-09T02:45:41;5.95;;;1.70;;
47329;SDS011;33060;50.178;7.570;2022-09-09T02:48:17;2.80;;;1.35;;
47329;SDS011;33060;50.178;7.570;2022-09-09T02:51:07;5.05;;;1.17;;
47329;SDS011;33060;50.178;7.570;2022-09-09T02:56:22;5.18;;;1.90;;
47329;SDS011;33060;50.178;7.570;2022-09-09T02:58:54;2.63;;;1.38;;
47329;SDS011;33060;50.178;7.570;2022-09-09T03:01:23;5.03;;;1.50;;
47329;SDS011;33060;50.178;7.570;2022-09-09T03:03:50;4.40;;;1.48;;
47329;SDS011;33060;50.178;7.570;2022-09-09T03:06:17;7.20;;;1.63;;
47329;SDS011;33060;50.178;7.570;2022-09-09T03:08:49;3.28;;;1.38;;
47329;SDS011;33060;50.178;7.570;2022-09-09T03:11:21;4.22;;;1.33;;
47329;SDS011;33060;50.178;7.570;2022-09-09T03:13:48;6.60;;;1.70;;
47329;SDS011;33060;50.178;7.570;2022-09-09T03:16:16;3.95;;;1.45;;
47329;SDS011;33060;50.178;7.570;2022-09-09T03:18:46;3.50;;;1.58;;
47329;SDS011;33060;50.178;7.570;2022-09-09T03:21:12;3.75;;;1.42;;
47329;SDS011;33060;50.178;7.570;2022-09-09T03:23:40;2.65;;;1.40;;
47329;SDS011;33060;50.178;7.570;2022-09-09T03:26:07;4.28;;;1.52;;
47329;SDS011;33060;50.178;7.570;2022-09-09T03:28:41;4.05;;;1.20;;
47329;SDS011;33060;50.178;7.570;2022-09-09T03:31:09;4.72;;;1.50;;
47329;SDS011;33060;50.178;7.570;2022-09-09T03:33:40;7.07;;;1.50;;
47329;SDS011;33060;50.178;7.570;2022-09-09T03:36:10;6.28;;;1.77;;
47329;SDS011;33060;50.178;7.570;2022-09-09T03:38:37;5.07;;;1.50;;
47329;SDS011;33060;50.178;7.570;2022-09-09T03:41:04;7.70;;;1.70;;
47329;SDS011;33060;50.178;7.570;2022-09-09T03:43:34;4.03;;;1.55;;
47329;SDS011;33060;50.178;7.570;2022-09-09T03:46:01;3.42;;;1.67;;
47329;SDS011;33060;50.178;7.570;2022-09-09T03:48:28;5.15;;;1.83;;
47329;SDS011;33060;50.178;7.570;2022-09-09T03:50:55;3.70;;;1.50;;
47329;SDS011;33060;50.178;7.570;2022-09-09T03:53:24;4.22;;;1.60;;
47329;SDS011;33060;50.178;7.570;2022-09-09T03:55:52;6.57;;;1.88;;
47329;SDS011;33060;50.178;7.570;2022-09-09T03:58:26;5.88;;;1.90;;
47329;SDS011;33060;50.178;7.570;2022-09-09T04:01:04;3.33;;;1.58;;
47329;SDS011;33060;50.178;7.570;2022-09-09T04:03:32;6.03;;;1.83;;
47329;SDS011;33060;50.178;7.570;2022-09-09T04:06:00;5.70;;;2.20;;
47329;SDS011;33060;50.178;7.570;2022-09-09T04:08:29;3.95;;;1.63;;
47329;SDS011;33060;50.178;7.570;2022-09-09T04:11:00;5.63;;;1.50;;
47329;SDS011;33060;50.178;7.570;2022-09-09T04:13:33;5.72;;;1.65;;
47329;SDS011;33060;50.178;7.570;2022-09-09T04:16:01;3.28;;;1.52;;
47329;SDS011;33060;50.178;7.570;2022-09-09T04:18:30;4.28;;;1.75;;
47329;SDS011;33060;50.178;7.570;2022-09-09T04:20:58;4.80;;;1.80;;
47329;SDS011;33060;50.178;7.570;2022-09-09T04:23:28;7.25;;;1.92;;
47329;SDS011;33060;50.178;7.570;2022-09-09T04:25:57;4.75;;;1.80;;
47329;SDS011;33060;50.178;7.570;2022-09-09T04:28:26;2.70;;;1.70;;
47329;SDS011;33060;50.178;7.570;2022-09-09T04:30:55;4.82;;;2.10;;
47329;SDS011;33060;50.178;7.570;2022-09-09T04:33:24;4.95;;;2.10;;
47329;SDS011;33060;50.178;7.570;2022-09-09T04:35:54;6.47;;;1.98;;
47329;SDS011;33060;50.178;7.570;2022-09-09T04:38:23;4.40;;;1.80;;
47329;SDS011;33060;50.178;7.570;2022-09-09T04:40:50;3.53;;;2.00;;
47329;SDS011;33060;50.178;7.570;2022-09-09T04:43:18;5.82;;;2.03;;
47329;SDS011;33060;50.178;7.570;2022-09-09T04:45:46;7.20;;;2.45;;
47329;SDS011;33060;50.178;7.570;2022-09-09T04:48:14;5.07;;;2.05;;
47329;SDS011;33060;50.178;7.570;2022-09-09T04:50:42;3.35;;;2.00;;
47329;SDS011;33060;50.178;7.570;2022-09-09T04:53:10;4.43;;;2.10;;
47329;SDS011;33060;50.178;7.570;2022-09-09T04:55:37;6.15;;;2.33;;
47329;SDS011;33060;50.178;7.570;2022-09-09T04:58:05;4.72;;;2.20;;
47329;SDS011;33060;50.178;7.570;2022-09-09T05:00:34;3.92;;;2.05;;
47329;SDS011;33060;50.178;7.570;2022-09-09T05:03:06;4.68;;;2.10;;
47329;SDS011;33060;50.178;7.570;2022-09-09T05:05:35;3.55;;;1.92;;
47329;SDS011;33060;50.178;7.570;2022-09-09T05:08:03;4.65;;;2.20;;
47329;SDS011;33060;50.178;7.570;2022-09-09T05:10:31;4.95;;;2.13;;
47329;SDS011;33060;50.178;7.570;2022-09-09T05:12:59;3.72;;;2.00;;
47329;SDS011;33060;50.178;7.570;2022-09-09T05:15:28;6.32;;;2.35;;
47329;SDS011;33060;50.178;7.570;2022-09-09T05:17:58;7.88;;;2.88;;
47329;SDS011;33060;50.178;7.570;2022-09-09T05:20:28;5.82;;;2.33;;
47329;SDS011;33060;50.178;7.570;2022-09-09T05:22:56;6.95;;;2.30;;
47329;SDS011;33060;50.178;7.570;2022-09-09T05:25:26;7.13;;;2.33;;
47329;SDS011;33060;50.178;7.570;2022-09-09T05:27:54;5.28;;;2.40;;
47329;SDS011;33060;50.178;7.570;2022-09-09T05:30:21;6.05;;;2.10;;
47329;SDS011;33060;50.178;7.570;2022-09-09T05:32:50;5.80;;;2.17;;
47329;SDS011;33060;50.178;7.570;2022-09-09T05:35:17;5.80;;;2.15;;
47329;SDS011;33060;50.178;7.570;2022-09-09T05:37:45;7.50;;;2.65;;
47329;SDS011;33060;50.178;7.570;2022-09-09T05:40:12;6.68;;;2.13;;
47329;SDS011;33060;50.178;7.570;2022-09-09T05:42:39;5.88;;;2.10;;
47329;SDS011;33060;50.178;7.570;2022-09-09T05:45:08;5.93;;;2.20;;
47329;SDS011;33060;50.178;7.570;2022-09-09T05:47:37;5.38;;;1.83;;
47329;SDS011;33060;50.178;7.570;2022-09-09T05:50:06;4.80;;;1.95;;
47329;SDS011;33060;50.178;7.570;2022-09-09T05:52:33;6.45;;;2.20;;
47329;SDS011;33060;50.178;7.570;2022-09-09T05:55:00;10.15;;;2.35;;
47329;SDS011;33060;50.178;7.570;2022-09-09T05:57:27;7.80;;;2.10;;
47329;SDS011;33060;50.178;7.570;2022-09-09T05:59:54;6.15;;;1.95;;
47329;SDS011;33060;50.178;7.570;2022-09-09T06:02:21;5.28;;;2.00;;
47329;SDS011;33060;50.178;7.570;2022-09-09T06:04:48;6.05;;;2.05;;
47329;SDS011;33060;50.178;7.570;2022-09-09T06:07:15;4.80;;;1.67;;
47329;SDS011;33060;50.178;7.570;2022-09-09T06:09:41;7.60;;;1.73;;
47329;SDS011;33060;50.178;7.570;2022-09-09T06:12:08;4.88;;;1.70;;
47329;SDS011;33060;50.178;7.570;2022-09-09T06:14:35;6.47;;;2.05;;
47329;SDS011;33060;50.178;7.570;2022-09-09T06:17:03;3.85;;;1.60;;
47329;SDS011;33060;50.178;7.570;2022-09-09T06:19:30;6.85;;;1.50;;
47329;SDS011;33060;50.178;7.570;2022-09-09T06:21:58;5.80;;;1.60;;
47329;SDS011;33060;50.178;7.570;2022-09-09T06:24:27;7.07;;;1.70;;
47329;SDS011;33060;50.178;7.570;2022-09-09T06:26:55;6.15;;;1.90;;
47329;SDS011;33060;50.178;7.570;2022-09-09T06:29:26;3.90;;;1.67;;
47329;SDS011;33060;50.178;7.570;2022-09-09T06:31:52;3.92;;;1.65;;
47329;SDS011;33060;50.178;7.570;2022-09-09T06:34:21;3.80;;;1.70;;
47329;SDS011;33060;50.178;7.570;2022-09-09T06:36:58;5.45;;;1.75;;
47329;SDS011;33060;50.178;7.570;2022-09-09T06:39:29;5.32;;;1.73;;
47329;SDS011;33060;50.178;7.570;2022-09-09T06:41:56;6.45;;;1.58;;
47329;SDS011;33060;50.178;7.570;2022-09-09T06:44:43;7.53;;;1.95;;
47329;SDS011;33060;50.178;7.570;2022-09-09T06:47:15;8.02;;;1.83;;
47329;SDS011;33060;50.178;7.570;2022-09-09T06:49:42;5.05;;;1.65;;
47329;SDS011;33060;50.178;7.570;2022-09-09T06:52:14;4.43;;;1.23;;
47329;SDS011;33060;50.178;7.570;2022-09-09T06:54:40;3.17;;;1.33;;
47329;SDS011;33060;50.178;7.570;2022-09-09T06:57:07;5.03;;;1.55;;
47329;SDS011;33060;50.178;7.570;2022-09-09T06:59:55;5.70;;;1.40;;
47329;SDS011;33060;50.178;7.570;2022-09-09T07:02:22;5.97;;;1.77;;
47329;SDS011;33060;50.178;7.570;2022-09-09T07:04:48;5.75;;;1.30;;
47329;SDS011;33060;50.178;7.570;2022-09-09T07:07:17;4.07;;;1.40;;
47329;SDS011;33060;50.178;7.570;2022-09-09T07:09:44;4.18;;;1.52;;
47329;SDS011;33060;50.178;7.570;2022-09-09T07:12:11;5.68;;;1.77;;
47329;SDS011;33060;50.178;7.570;2022-09-09T07:14:44;5.97;;;1.40;;
47329;SDS011;33060;50.178;7.570;2022-09-09T07:17:12;3.97;;;1.40;;
47329;SDS011;33060;50.178;7.570;2022-09-09T07:19:39;4.72;;;1.50;;
47329;SDS011;33060;50.178;7.570;2022-09-09T07:22:05;3.72;;;1.30;;
47329;SDS011;33060;50.178;7.570;2022-09-09T07:24:34;7.05;;;1.50;;
47329;SDS011;33060;50.178;7.570;2022-09-09T07:27:01;6.20;;;1.50;;
47329;SDS011;33060;50.178;7.570;2022-09-09T07:29:29;6.55;;;1.80;;
47329;SDS011;33060;50.178;7.570;2022-09-09T07:31:56;5.32;;;1.40;;
47329;SDS011;33060;50.178;7.570;2022-09-09T07:34:29;3.85;;;1.40;;
47329;SDS011;33060;50.178;7.570;2022-09-09T07:36:56;4.45;;;1.30;;
47329;SDS011;33060;50.178;7.570;2022-09-09T07:39:24;3.80;;;1.33;;
47329;SDS011;33060;50.178;7.570;2022-09-09T07:41:52;4.47;;;1.65;;
47329;SDS011;33060;50.178;7.570;2022-09-09T07:44:23;4.20;;;1.50;;
47329;SDS011;33060;50.178;7.570;2022-09-09T07:47:03;4.57;;;1.35;;
47329;SDS011;33060;50.178;7.570;2022-09-09T07:49:35;5.55;;;1.27;;
47329;SDS011;33060;50.178;7.570;2022-09-09T07:52:03;5.18;;;1.40;;
47329;SDS011;33060;50.178;7.570;2022-09-09T07:54:31;3.03;;;1.05;;
47329;SDS011;33060;50.178;7.570;2022-09-09T07:57:01;4.55;;;1.17;;
47329;SDS011;33060;50.178;7.570;2022-09-09T07:59:32;4.25;;;1.45;;
47329;SDS011;33060;50.178;7.570;2022-09-09T08:01:58;5.65;;;1.48;;
47329;SDS011;33060;50.178;7.570;2022-09-09T08:04:28;5.88;;;1.70;;
47329;SDS011;33060;50.178;7.570;2022-09-09T08:06:56;4.68;;;1.42;;
